sensor_id;sensor_type;location;lat;lon;timestamp;temperature;humidity
37380;DHT22;23252;-33.992;18.480;2023-04-25T00:14:55;14.70;99.90
37380;DHT22;23252;-33.992;18.480;2023-04-25T00:17:23;15.00;99.90
37380;DHT22;23252;-33.992;18.480;2023-04-25T00:19:53;15.00;99.90
37380;DHT22;23252;-33.992;18.480;2023-04-25T00:22:20;15.00;99.90
37380;DHT22;23252;-33.992;18.480;2023-04-25T00:24:46;14.90;99.90
37380;DHT22;23252;-33.992;18.480;2023-04-25T00:27:14;14.90;99.90
37380;DHT22;23252;-33.992;18.480;2023-04-25T00:29:41;14.90;99.90
37380;DHT22;23252;-33.992;18.480;2023-04-25T00:32:07;14.90;99.90
37380;DHT22;23252;-33.992;18.480;2023-04-25T00:34:34;14.80;99.90
37380;DHT22;23252;-33.992;18.480;2023-04-25T00:37:00;14.80;99.90
37380;DHT22;23252;-33.992;18.480;2023-04-25T00:39:30;14.90;99.90
37380;DHT22;23252;-33.992;18.480;2023-04-25T00:41:58;14.80;99.90
37380;DHT22;23252;-33.992;18.480;2023-04-25T00:44:24;14.80;99.90
37380;DHT22;23252;-33.992;18.480;2023-04-25T00:46:54;14.80;99.90
37380;DHT22;23252;-33.992;18.480;2023-04-25T00:49:21;14.80;99.90
37380;DHT22;23252;-33.992;18.480;2023-04-25T00:51:48;14.70;99.90
37380;DHT22;23252;-33.992;18.480;2023-04-25T00:54:14;14.70;99.90
37380;DHT22;23252;-33.992;18.480;2023-04-25T00:56:41;14.80;99.90
37380;DHT22;23252;-33.992;18.480;2023-04-25T00:59:09;14.80;99.90
37380;DHT22;23252;-33.992;18.480;2023-04-25T01:01:36;14.80;99.90
37380;DHT22;23252;-33.992;18.480;2023-04-25T01:04:03;14.70;99.90
37380;DHT22;23252;-33.992;18.480;2023-04-25T01:06:30;14.70;99.90
37380;DHT22;23252;-33.992;18.480;2023-04-25T01:08:58;14.70;99.90
37380;DHT22;23252;-33.992;18.480;2023-04-25T01:11:25;14.70;99.90
37380;DHT22;23252;-33.992;18.480;2023-04-25T01:13:51;14.70;99.90
37380;DHT22;23252;-33.992;18.480;2023-04-25T01:16:18;14.60;99.90
37380;DHT22;23252;-33.992;18.480;2023-04-25T01:18:45;14.60;99.90
37380;DHT22;23252;-33.992;18.480;2023-04-25T01:21:13;14.60;99.90
37380;DHT22;23252;-33.992;18.480;2023-04-25T01:23:41;14.70;99.90
37380;DHT22;23252;-33.992;18.480;2023-04-25T01:26:10;14.70;99.90
37380;DHT22;23252;-33.992;18.480;2023-04-25T01:28:38;14.60;99.90
37380;DHT22;23252;-33.992;18.480;2023-04-25T01:31:08;14.60;99.90
37380;DHT22;23252;-33.992;18.480;2023-04-25T01:33:34;14.60;99.90
37380;DHT22;23252;-33.992;18.480;2023-04-25T01:36:01;14.60;99.90
37380;DHT22;23252;-33.992;18.480;2023-04-25T01:38:28;14.50;99.90
37380;DHT22;23252;-33.992;18.480;2023-04-25T01:40:55;14.50;99.90
37380;DHT22;23252;-33.992;18.480;2023-04-25T01:43:22;14.50;99.90
37380;DHT22;23252;-33.992;18.480;2023-04-25T01:45:50;14.40;99.90
37380;DHT22;23252;-33.992;18.480;2023-04-25T01:48:17;14.40;99.90
37380;DHT22;23252;-33.992;18.480;2023-04-25T01:50:44;14.40;99.90
37380;DHT22;23252;-33.992;18.480;2023-04-25T01:53:11;14.40;99.90
37380;DHT22;23252;-33.992;18.480;2023-04-25T01:55:39;14.40;99.90
37380;DHT22;23252;-33.992;18.480;2023-04-25T01:58:05;14.40;99.90
37380;DHT22;23252;-33.992;18.480;2023-04-25T02:00:35;14.40;99.90
37380;DHT22;23252;-33.992;18.480;2023-04-25T02:03:05;14.40;99.90
37380;DHT22;23252;-33.992;18.480;2023-04-25T02:05:35;14.40;99.90
37380;DHT22;23252;-33.992;18.480;2023-04-25T02:08:04;14.40;99.90
37380;DHT22;23252;-33.992;18.480;2023-04-25T02:10:31;14.40;99.90
37380;DHT22;23252;-33.992;18.480;2023-04-25T02:12:58;14.40;99.90
37380;DHT22;23252;-33.992;18.480;2023-04-25T02:15:24;14.50;99.90
37380;DHT22;23252;-33.992;18.480;2023-04-25T02:17:51;14.40;99.90
37380;DHT22;23252;-33.992;18.480;2023-04-25T02:20:24;14.40;99.90
37380;DHT22;23252;-33.992;18.480;2023-04-25T02:22:51;14.40;99.90
37380;DHT22;23252;-33.992;18.480;2023-04-25T02:25:18;14.50;99.90
37380;DHT22;23252;-33.992;18.480;2023-04-25T02:27:46;14.40;99.90
37380;DHT22;23252;-33.992;18.480;2023-04-25T02:30:13;14.40;99.90
37380;DHT22;23252;-33.992;18.480;2023-04-25T02:32:40;14.30;99.90
37380;DHT22;23252;-33.992;18.480;2023-04-25T02:35:07;14.30;99.90
37380;DHT22;23252;-33.992;18.480;2023-04-25T02:37:35;14.40;99.90
37380;DHT22;23252;-33.992;18.480;2023-04-25T02:40:01;14.30;99.90
37380;DHT22;23252;-33.992;18.480;2023-04-25T02:42:28;14.40;99.90
37380;DHT22;23252;-33.992;18.480;2023-04-25T02:44:55;14.30;99.90
37380;DHT22;23252;-33.992;18.480;2023-04-25T02:47:21;14.30;99.90
37380;DHT22;23252;-33.992;18.480;2023-04-25T02:49:48;14.30;99.90
37380;DHT22;23252;-33.992;18.480;2023-04-25T02:52:15;14.20;99.90
37380;DHT22;23252;-33.992;18.480;2023-04-25T02:54:41;14.30;99.90
37380;DHT22;23252;-33.992;18.480;2023-04-25T02:57:08;14.40;99.90
37380;DHT22;23252;-33.992;18.480;2023-04-25T02:59:34;14.40;99.90
37380;DHT22;23252;-33.992;18.480;2023-04-25T03:02:01;14.40;99.90
37380;DHT22;23252;-33.992;18.480;2023-04-25T03:04:28;14.50;99.90
37380;DHT22;23252;-33.992;18.480;2023-04-25T03:06:54;14.50;99.90
37380;DHT22;23252;-33.992;18.480;2023-04-25T03:09:21;14.50;99.90
37380;DHT22;23252;-33.992;18.480;2023-04-25T03:11:47;14.50;99.90
37380;DHT22;23252;-33.992;18.480;2023-04-25T03:14:14;14.50;99.90
37380;DHT22;23252;-33.992;18.480;2023-04-25T03:16:41;14.60;99.90
37380;DHT22;23252;-33.992;18.480;2023-04-25T03:19:07;14.60;99.90
37380;DHT22;23252;-33.992;18.480;2023-04-25T03:21:35;14.60;99.90
37380;DHT22;23252;-33.992;18.480;2023-04-25T03:24:03;14.60;99.90
37380;DHT22;23252;-33.992;18.480;2023-04-25T03:26:30;14.60;99.90
37380;DHT22;23252;-33.992;18.480;2023-04-25T03:28:57;14.60;99.90
37380;DHT22;23252;-33.992;18.480;2023-04-25T03:31:23;14.50;99.90
37380;DHT22;23252;-33.992;18.480;2023-04-25T03:33:49;14.60;99.90
37380;DHT22;23252;-33.992;18.480;2023-04-25T03:36:16;14.60;99.90
37380;DHT22;23252;-33.992;18.480;2023-04-25T03:38:42;14.60;99.90
37380;DHT22;23252;-33.992;18.480;2023-04-25T03:41:09;14.60;99.90
37380;DHT22;23252;-33.992;18.480;2023-04-25T03:43:35;14.60;99.90
37380;DHT22;23252;-33.992;18.480;2023-04-25T03:46:02;14.70;99.90
37380;DHT22;23252;-33.992;18.480;2023-04-25T03:48:28;14.60;99.90
37380;DHT22;23252;-33.992;18.480;2023-04-25T03:50:55;14.60;99.90
37380;DHT22;23252;-33.992;18.480;2023-04-25T03:53:21;14.60;99.90
37380;DHT22;23252;-33.992;18.480;2023-04-25T03:55:48;14.60;99.90
37380;DHT22;23252;-33.992;18.480;2023-04-25T03:58:14;14.70;99.90
37380;DHT22;23252;-33.992;18.480;2023-04-25T04:00:41;14.70;99.90
37380;DHT22;23252;-33.992;18.480;2023-04-25T04:03:07;14.70;99.90
37380;DHT22;23252;-33.992;18.480;2023-04-25T04:05:34;14.80;99.90
37380;DHT22;23252;-33.992;18.480;2023-04-25T04:08:00;14.80;99.90
37380;DHT22;23252;-33.992;18.480;2023-04-25T04:10:26;14.90;99.90
37380;DHT22;23252;-33.992;18.480;2023-04-25T04:12:53;14.90;99.90
37380;DHT22;23252;-33.992;18.480;2023-04-25T04:15:19;14.90;99.90
37380;DHT22;23252;-33.992;18.480;2023-04-25T04:17:47;14.90;99.90
37380;DHT22;23252;-33.992;18.480;2023-04-25T04:20:14;15.00;99.90
37380;DHT22;23252;-33.992;18.480;2023-04-25T04:22:40;15.00;99.90
37380;DHT22;23252;-33.992;18.480;2023-04-25T04:25:07;14.90;99.90
37380;DHT22;23252;-33.992;18.480;2023-04-25T04:27:34;15.00;99.90
37380;DHT22;23252;-33.992;18.480;2023-04-25T04:30:00;15.00;99.90
37380;DHT22;23252;-33.992;18.480;2023-04-25T04:32:27;15.10;99.90
37380;DHT22;23252;-33.992;18.480;2023-04-25T04:34:56;15.00;99.90
37380;DHT22;23252;-33.992;18.480;2023-04-25T04:37:23;15.10;99.90
37380;DHT22;23252;-33.992;18.480;2023-04-25T04:39:49;15.10;99.90
37380;DHT22;23252;-33.992;18.480;2023-04-25T04:42:16;15.10;99.90
37380;DHT22;23252;-33.992;18.480;2023-04-25T04:44:43;15.10;99.90
37380;DHT22;23252;-33.992;18.480;2023-04-25T04:47:10;15.10;99.90
37380;DHT22;23252;-33.992;18.480;2023-04-25T04:49:39;15.20;99.90
37380;DHT22;23252;-33.992;18.480;2023-04-25T04:52:06;15.20;99.90
37380;DHT22;23252;-33.992;18.480;2023-04-25T04:54:32;15.10;99.90
37380;DHT22;23252;-33.992;18.480;2023-04-25T04:57:01;15.10;99.90
37380;DHT22;23252;-33.992;18.480;2023-04-25T04:59:27;15.10;99.90
37380;DHT22;23252;-33.992;18.480;2023-04-25T05:02:18;15.20;99.90
37380;DHT22;23252;-33.992;18.480;2023-04-25T05:04:55;15.10;99.90
37380;DHT22;23252;-33.992;18.480;2023-04-25T05:07:34;15.10;99.90
37380;DHT22;23252;-33.992;18.480;2023-04-25T05:10:01;15.20;99.90
37380;DHT22;23252;-33.992;18.480;2023-04-25T05:12:27;15.20;99.90
37380;DHT22;23252;-33.992;18.480;2023-04-25T05:14:54;15.20;99.90
37380;DHT22;23252;-33.992;18.480;2023-04-25T05:17:21;15.20;99.90
37380;DHT22;23252;-33.992;18.480;2023-04-25T05:19:47;15.20;99.90
37380;DHT22;23252;-33.992;18.480;2023-04-25T05:22:14;15.20;99.90
37380;DHT22;23252;-33.992;18.480;2023-04-25T05:24:40;15.20;99.90
37380;DHT22;23252;-33.992;18.480;2023-04-25T05:27:07;15.20;99.90
37380;DHT22;23252;-33.992;18.480;2023-04-25T05:29:33;15.20;99.90
37380;DHT22;23252;-33.992;18.480;2023-04-25T05:32:01;15.20;99.90
37380;DHT22;23252;-33.992;18.480;2023-04-25T05:34:27;15.20;99.90
37380;DHT22;23252;-33.992;18.480;2023-04-25T05:36:57;15.20;99.90
37380;DHT22;23252;-33.992;18.480;2023-04-25T05:39:24;15.30;99.90
37380;DHT22;23252;-33.992;18.480;2023-04-25T05:41:50;15.30;99.90
37380;DHT22;23252;-33.992;18.480;2023-04-25T05:44:17;15.40;99.90
37380;DHT22;23252;-33.992;18.480;2023-04-25T05:46:44;15.40;99.90
37380;DHT22;23252;-33.992;18.480;2023-04-25T05:49:10;15.40;99.90
37380;DHT22;23252;-33.992;18.480;2023-04-25T05:51:37;15.50;99.90
37380;DHT22;23252;-33.992;18.480;2023-04-25T05:54:03;15.50;99.90
37380;DHT22;23252;-33.992;18.480;2023-04-25T05:56:30;15.60;99.90
37380;DHT22;23252;-33.992;18.480;2023-04-25T05:58:56;15.60;99.90
37380;DHT22;23252;-33.992;18.480;2023-04-25T06:01:23;15.70;99.90
37380;DHT22;23252;-33.992;18.480;2023-04-25T06:03:49;15.70;99.90
37380;DHT22;23252;-33.992;18.480;2023-04-25T06:06:18;15.80;99.90
37380;DHT22;23252;-33.992;18.480;2023-04-25T06:08:48;15.80;99.90
37380;DHT22;23252;-33.992;18.480;2023-04-25T06:11:14;15.90;99.90
37380;DHT22;23252;-33.992;18.480;2023-04-25T06:13:41;15.90;99.90
37380;DHT22;23252;-33.992;18.480;2023-04-25T06:16:07;16.00;99.90
37380;DHT22;23252;-33.992;18.480;2023-04-25T06:18:34;16.10;99.90
37380;DHT22;23252;-33.992;18.480;2023-04-25T06:21:00;16.20;99.90
37380;DHT22;23252;-33.992;18.480;2023-04-25T06:23:27;16.20;99.90
37380;DHT22;23252;-33.992;18.480;2023-04-25T06:25:53;16.30;99.90
37380;DHT22;23252;-33.992;18.480;2023-04-25T06:28:20;16.40;99.90
37380;DHT22;23252;-33.992;18.480;2023-04-25T06:30:48;16.50;99.90
37380;DHT22;23252;-33.992;18.480;2023-04-25T06:33:14;16.60;99.90
37380;DHT22;23252;-33.992;18.480;2023-04-25T06:35:41;16.60;99.90
37380;DHT22;23252;-33.992;18.480;2023-04-25T06:38:07;16.60;99.90
37380;DHT22;23252;-33.992;18.480;2023-04-25T06:40:34;16.70;99.90
37380;DHT22;23252;-33.992;18.480;2023-04-25T06:43:00;16.70;99.90
37380;DHT22;23252;-33.992;18.480;2023-04-25T06:45:27;16.70;99.90
37380;DHT22;23252;-33.992;18.480;2023-04-25T06:47:53;16.80;99.90
37380;DHT22;23252;-33.992;18.480;2023-04-25T06:50:20;16.80;99.90
37380;DHT22;23252;-33.992;18.480;2023-04-25T06:52:46;16.80;99.90
37380;DHT22;23252;-33.992;18.480;2023-04-25T06:55:13;16.90;99.90
37380;DHT22;23252;-33.992;18.480;2023-04-25T06:57:39;17.00;99.90
37380;DHT22;23252;-33.992;18.480;2023-04-25T07:00:06;17.10;99.90
37380;DHT22;23252;-33.992;18.480;2023-04-25T07:02:35;17.20;99.90
37380;DHT22;23252;-33.992;18.480;2023-04-25T07:05:03;17.30;99.90
37380;DHT22;23252;-33.992;18.480;2023-04-25T07:07:30;17.30;99.90
37380;DHT22;23252;-33.992;18.480;2023-04-25T07:09:57;17.30;99.90
37380;DHT22;23252;-33.992;18.480;2023-04-25T07:12:23;17.40;99.90
37380;DHT22;23252;-33.992;18.480;2023-04-25T07:14:50;17.40;99.90
37380;DHT22;23252;-33.992;18.480;2023-04-25T07:17:16;17.50;99.90
37380;DHT22;23252;-33.992;18.480;2023-04-25T07:19:42;17.50;99.90
37380;DHT22;23252;-33.992;18.480;2023-04-25T07:22:09;17.60;99.90
37380;DHT22;23252;-33.992;18.480;2023-04-25T07:24:35;17.80;99.90
37380;DHT22;23252;-33.992;18.480;2023-04-25T07:27:02;17.80;99.90
37380;DHT22;23252;-33.992;18.480;2023-04-25T07:29:29;17.90;99.90
37380;DHT22;23252;-33.992;18.480;2023-04-25T07:31:57;18.00;99.90
37380;DHT22;23252;-33.992;18.480;2023-04-25T07:34:23;18.10;99.90
37380;DHT22;23252;-33.992;18.480;2023-04-25T07:36:50;18.00;99.90
37380;DHT22;23252;-33.992;18.480;2023-04-25T07:39:16;18.20;99.90
37380;DHT22;23252;-33.992;18.480;2023-04-25T07:41:43;18.30;99.90
37380;DHT22;23252;-33.992;18.480;2023-04-25T07:44:09;18.40;99.90
37380;DHT22;23252;-33.992;18.480;2023-04-25T07:46:36;18.50;99.90
37380;DHT22;23252;-33.992;18.480;2023-04-25T07:49:05;18.60;99.90
37380;DHT22;23252;-33.992;18.480;2023-04-25T07:51:32;18.60;99.90
37380;DHT22;23252;-33.992;18.480;2023-04-25T07:53:58;18.70;99.90
37380;DHT22;23252;-33.992;18.480;2023-04-25T07:56:25;18.70;99.90
37380;DHT22;23252;-33.992;18.480;2023-04-25T07:58:52;18.70;99.90
37380;DHT22;23252;-33.992;18.480;2023-04-25T08:01:18;18.80;99.90
37380;DHT22;23252;-33.992;18.480;2023-04-25T08:03:47;18.90;99.90
37380;DHT22;23252;-33.992;18.480;2023-04-25T08:06:13;19.10;99.90
37380;DHT22;23252;-33.992;18.480;2023-04-25T08:08:40;19.20;99.90
37380;DHT22;23252;-33.992;18.480;2023-04-25T08:11:06;19.30;99.90
37380;DHT22;23252;-33.992;18.480;2023-04-25T08:13:33;19.40;99.90
37380;DHT22;23252;-33.992;18.480;2023-04-25T08:15:59;19.50;99.90
37380;DHT22;23252;-33.992;18.480;2023-04-25T08:18:26;19.50;99.90
37380;DHT22;23252;-33.992;18.480;2023-04-25T08:20:52;19.60;99.90
37380;DHT22;23252;-33.992;18.480;2023-04-25T08:23:19;19.70;99.90
37380;DHT22;23252;-33.992;18.480;2023-04-25T08:25:45;19.80;99.90
37380;DHT22;23252;-33.992;18.480;2023-04-25T08:28:12;19.80;99.90
37380;DHT22;23252;-33.992;18.480;2023-04-25T08:30:38;19.80;99.90
37380;DHT22;23252;-33.992;18.480;2023-04-25T08:33:05;19.80;99.90
37380;DHT22;23252;-33.992;18.480;2023-04-25T08:35:31;19.70;99.90
37380;DHT22;23252;-33.992;18.480;2023-04-25T08:37:59;19.70;99.90
37380;DHT22;23252;-33.992;18.480;2023-04-25T08:40:28;19.70;99.90
37380;DHT22;23252;-33.992;18.480;2023-04-25T08:42:57;19.60;99.90
37380;DHT22;23252;-33.992;18.480;2023-04-25T08:45:26;19.60;99.90
37380;DHT22;23252;-33.992;18.480;2023-04-25T08:47:54;19.50;99.90
37380;DHT22;23252;-33.992;18.480;2023-04-25T08:50:23;19.40;99.90
37380;DHT22;23252;-33.992;18.480;2023-04-25T08:52:53;19.40;99.90
37380;DHT22;23252;-33.992;18.480;2023-04-25T08:55:21;19.40;99.90
37380;DHT22;23252;-33.992;18.480;2023-04-25T08:57:48;19.40;99.90
37380;DHT22;23252;-33.992;18.480;2023-04-25T09:00:16;19.50;99.90
37380;DHT22;23252;-33.992;18.480;2023-04-25T09:02:45;19.50;99.90
37380;DHT22;23252;-33.992;18.480;2023-04-25T09:05:13;19.50;99.90
37380;DHT22;23252;-33.992;18.480;2023-04-25T09:07:40;19.50;99.90
37380;DHT22;23252;-33.992;18.480;2023-04-25T09:10:07;19.50;99.90
37380;DHT22;23252;-33.992;18.480;2023-04-25T09:12:35;19.50;99.90
37380;DHT22;23252;-33.992;18.480;2023-04-25T09:15:07;19.50;99.90
37380;DHT22;23252;-33.992;18.480;2023-04-25T09:17:34;19.50;99.90
37380;DHT22;23252;-33.992;18.480;2023-04-25T09:20:14;19.60;99.90
37380;DHT22;23252;-33.992;18.480;2023-04-25T09:22:41;19.60;99.90
37380;DHT22;23252;-33.992;18.480;2023-04-25T09:25:09;19.70;99.90
37380;DHT22;23252;-33.992;18.480;2023-04-25T09:27:35;19.90;99.90
37380;DHT22;23252;-33.992;18.480;2023-04-25T09:30:02;19.90;99.90
37380;DHT22;23252;-33.992;18.480;2023-04-25T09:32:29;20.00;99.90
37380;DHT22;23252;-33.992;18.480;2023-04-25T09:34:56;20.10;99.90
37380;DHT22;23252;-33.992;18.480;2023-04-25T09:37:30;20.20;99.90
37380;DHT22;23252;-33.992;18.480;2023-04-25T09:39:59;20.30;99.90
37380;DHT22;23252;-33.992;18.480;2023-04-25T09:42:27;20.40;99.90
37380;DHT22;23252;-33.992;18.480;2023-04-25T09:44:56;20.40;99.90
37380;DHT22;23252;-33.992;18.480;2023-04-25T09:47:26;20.50;99.90
37380;DHT22;23252;-33.992;18.480;2023-04-25T09:49:54;20.60;99.90
37380;DHT22;23252;-33.992;18.480;2023-04-25T09:52:23;20.60;99.90
37380;DHT22;23252;-33.992;18.480;2023-04-25T09:54:50;20.60;99.90
37380;DHT22;23252;-33.992;18.480;2023-04-25T09:57:22;20.70;99.90
37380;DHT22;23252;-33.992;18.480;2023-04-25T09:59:52;20.80;99.90
37380;DHT22;23252;-33.992;18.480;2023-04-25T10:02:21;20.90;99.90
37380;DHT22;23252;-33.992;18.480;2023-04-25T10:04:50;21.10;99.90
37380;DHT22;23252;-33.992;18.480;2023-04-25T10:07:29;21.30;99.90
37380;DHT22;23252;-33.992;18.480;2023-04-25T10:10:02;21.50;99.90
37380;DHT22;23252;-33.992;18.480;2023-04-25T10:12:29;21.60;99.90
37380;DHT22;23252;-33.992;18.480;2023-04-25T10:14:59;21.80;99.90
37380;DHT22;23252;-33.992;18.480;2023-04-25T10:17:27;21.90;99.90
37380;DHT22;23252;-33.992;18.480;2023-04-25T10:19:54;22.10;99.90
37380;DHT22;23252;-33.992;18.480;2023-04-25T10:22:31;22.20;99.90
37380;DHT22;23252;-33.992;18.480;2023-04-25T10:24:59;22.20;99.90
37380;DHT22;23252;-33.992;18.480;2023-04-25T10:27:30;22.20;99.90
37380;DHT22;23252;-33.992;18.480;2023-04-25T10:30:08;22.30;99.90
37380;DHT22;23252;-33.992;18.480;2023-04-25T10:32:38;22.40;99.90
37380;DHT22;23252;-33.992;18.480;2023-04-25T10:35:13;22.40;99.90
37380;DHT22;23252;-33.992;18.480;2023-04-25T10:38:00;22.40;99.90
37380;DHT22;23252;-33.992;18.480;2023-04-25T10:40:29;22.30;99.90
37380;DHT22;23252;-33.992;18.480;2023-04-25T10:42:56;22.30;99.90
37380;DHT22;23252;-33.992;18.480;2023-04-25T10:45:52;22.40;99.90
37380;DHT22;23252;-33.992;18.480;2023-04-25T10:48:31;22.50;99.90
37380;DHT22;23252;-33.992;18.480;2023-04-25T10:51:19;22.70;99.90
37380;DHT22;23252;-33.992;18.480;2023-04-25T10:56:32;22.70;99.90
37380;DHT22;23252;-33.992;18.480;2023-04-25T10:59:19;22.60;99.90
37380;DHT22;23252;-33.992;18.480;2023-04-25T11:01:48;22.60;99.90
37380;DHT22;23252;-33.992;18.480;2023-04-25T11:04:31;22.70;99.90
37380;DHT22;23252;-33.992;18.480;2023-04-25T11:07:19;22.90;99.90
37380;DHT22;23252;-33.992;18.480;2023-04-25T11:09:50;23.00;99.90
37380;DHT22;23252;-33.992;18.480;2023-04-25T11:12:16;23.10;99.90
37380;DHT22;23252;-33.992;18.480;2023-04-25T11:14:43;23.20;99.90
37380;DHT22;23252;-33.992;18.480;2023-04-25T11:17:09;23.50;99.90
37380;DHT22;23252;-33.992;18.480;2023-04-25T11:19:36;23.60;99.90
37380;DHT22;23252;-33.992;18.480;2023-04-25T11:22:03;23.60;99.90
37380;DHT22;23252;-33.992;18.480;2023-04-25T11:24:31;23.30;99.90
37380;DHT22;23252;-33.992;18.480;2023-04-25T11:27:07;23.10;99.90
37380;DHT22;23252;-33.992;18.480;2023-04-25T11:29:34;22.90;99.90
37380;DHT22;23252;-33.992;18.480;2023-04-25T11:32:01;22.70;99.90
37380;DHT22;23252;-33.992;18.480;2023-04-25T11:34:28;22.60;99.90
37380;DHT22;23252;-33.992;18.480;2023-04-25T11:37:02;22.40;99.90
37380;DHT22;23252;-33.992;18.480;2023-04-25T11:39:29;22.30;99.90
37380;DHT22;23252;-33.992;18.480;2023-04-25T11:41:56;22.20;99.90
37380;DHT22;23252;-33.992;18.480;2023-04-25T11:44:23;22.20;99.90
37380;DHT22;23252;-33.992;18.480;2023-04-25T11:46:49;22.20;99.90
37380;DHT22;23252;-33.992;18.480;2023-04-25T11:49:15;22.30;99.90
37380;DHT22;23252;-33.992;18.480;2023-04-25T11:51:48;22.50;99.90
37380;DHT22;23252;-33.992;18.480;2023-04-25T11:54:15;22.70;99.90
37380;DHT22;23252;-33.992;18.480;2023-04-25T11:56:44;22.70;99.90
37380;DHT22;23252;-33.992;18.480;2023-04-25T11:59:12;22.80;99.90
37380;DHT22;23252;-33.992;18.480;2023-04-25T12:01:41;23.10;99.90
37380;DHT22;23252;-33.992;18.480;2023-04-25T12:04:22;23.30;99.90
37380;DHT22;23252;-33.992;18.480;2023-04-25T12:06:50;23.20;99.90
37380;DHT22;23252;-33.992;18.480;2023-04-25T12:09:31;23.10;99.90
37380;DHT22;23252;-33.992;18.480;2023-04-25T12:11:59;22.90;99.90
37380;DHT22;23252;-33.992;18.480;2023-04-25T12:14:33;22.70;99.90
37380;DHT22;23252;-33.992;18.480;2023-04-25T12:17:04;22.60;99.90
37380;DHT22;23252;-33.992;18.480;2023-04-25T12:19:34;22.40;99.90
37380;DHT22;23252;-33.992;18.480;2023-04-25T12:22:02;22.30;99.90
37380;DHT22;23252;-33.992;18.480;2023-04-25T12:24:29;22.20;99.90
37380;DHT22;23252;-33.992;18.480;2023-04-25T12:26:59;22.10;99.90
37380;DHT22;23252;-33.992;18.480;2023-04-25T12:29:28;22.00;99.90
37380;DHT22;23252;-33.992;18.480;2023-04-25T12:31:55;21.90;99.90
37380;DHT22;23252;-33.992;18.480;2023-04-25T12:34:22;21.90;99.90
37380;DHT22;23252;-33.992;18.480;2023-04-25T12:36:49;21.90;99.90
37380;DHT22;23252;-33.992;18.480;2023-04-25T12:39:17;21.80;99.90
37380;DHT22;23252;-33.992;18.480;2023-04-25T12:41:44;21.80;99.90
37380;DHT22;23252;-33.992;18.480;2023-04-25T12:44:11;21.70;99.90
37380;DHT22;23252;-33.992;18.480;2023-04-25T12:46:39;21.70;99.90
37380;DHT22;23252;-33.992;18.480;2023-04-25T12:49:06;21.60;99.90
37380;DHT22;23252;-33.992;18.480;2023-04-25T12:51:36;21.60;99.90
37380;DHT22;23252;-33.992;18.480;2023-04-25T12:54:05;21.60;99.90
37380;DHT22;23252;-33.992;18.480;2023-04-25T12:56:35;21.60;99.90
37380;DHT22;23252;-33.992;18.480;2023-04-25T12:59:02;21.80;99.90
37380;DHT22;23252;-33.992;18.480;2023-04-25T13:01:29;21.90;99.90
37380;DHT22;23252;-33.992;18.480;2023-04-25T13:03:56;21.80;99.90
37380;DHT22;23252;-33.992;18.480;2023-04-25T13:06:22;21.70;99.90
37380;DHT22;23252;-33.992;18.480;2023-04-25T13:08:49;21.60;99.90
37380;DHT22;23252;-33.992;18.480;2023-04-25T13:11:15;21.60;99.90
37380;DHT22;23252;-33.992;18.480;2023-04-25T13:13:43;21.50;99.90
37380;DHT22;23252;-33.992;18.480;2023-04-25T13:16:09;21.50;99.90
37380;DHT22;23252;-33.992;18.480;2023-04-25T13:18:36;21.40;99.90
37380;DHT22;23252;-33.992;18.480;2023-04-25T13:21:03;21.40;99.90
37380;DHT22;23252;-33.992;18.480;2023-04-25T13:23:29;21.30;99.90
37380;DHT22;23252;-33.992;18.480;2023-04-25T13:25:57;21.10;99.90
37380;DHT22;23252;-33.992;18.480;2023-04-25T13:28:24;21.00;99.90
37380;DHT22;23252;-33.992;18.480;2023-04-25T13:30:51;21.00;99.90
37380;DHT22;23252;-33.992;18.480;2023-04-25T13:33:18;21.00;99.90
37380;DHT22;23252;-33.992;18.480;2023-04-25T13:35:46;21.10;99.90
37380;DHT22;23252;-33.992;18.480;2023-04-25T13:38:23;21.00;99.90
37380;DHT22;23252;-33.992;18.480;2023-04-25T13:40:50;21.00;99.90
37380;DHT22;23252;-33.992;18.480;2023-04-25T13:43:21;21.10;99.90
37380;DHT22;23252;-33.992;18.480;2023-04-25T13:45:50;21.10;99.90
37380;DHT22;23252;-33.992;18.480;2023-04-25T13:48:18;21.10;99.90
37380;DHT22;23252;-33.992;18.480;2023-04-25T13:50:45;21.00;99.90
37380;DHT22;23252;-33.992;18.480;2023-04-25T13:53:12;21.00;99.90
37380;DHT22;23252;-33.992;18.480;2023-04-25T13:55:39;20.90;99.90
37380;DHT22;23252;-33.992;18.480;2023-04-25T13:58:05;20.90;99.90
37380;DHT22;23252;-33.992;18.480;2023-04-25T14:00:36;20.90;99.90
37380;DHT22;23252;-33.992;18.480;2023-04-25T14:03:04;20.90;99.90
37380;DHT22;23252;-33.992;18.480;2023-04-25T14:05:33;20.90;99.90
37380;DHT22;23252;-33.992;18.480;2023-04-25T16:15:47;18.40;99.90
37380;DHT22;23252;-33.992;18.480;2023-04-25T16:18:14;18.30;99.90
37380;DHT22;23252;-33.992;18.480;2023-04-25T16:20:41;18.30;99.90
37380;DHT22;23252;-33.992;18.480;2023-04-25T16:23:08;18.30;99.90
37380;DHT22;23252;-33.992;18.480;2023-04-25T16:26:01;18.20;99.90
37380;DHT22;23252;-33.992;18.480;2023-04-25T16:28:27;18.10;99.90
37380;DHT22;23252;-33.992;18.480;2023-04-25T16:30:54;18.00;99.90
37380;DHT22;23252;-33.992;18.480;2023-04-25T16:33:20;18.00;99.90
37380;DHT22;23252;-33.992;18.480;2023-04-25T16:35:47;17.90;99.90
37380;DHT22;23252;-33.992;18.480;2023-04-25T16:38:15;17.80;99.90
37380;DHT22;23252;-33.992;18.480;2023-04-25T16:40:41;17.80;99.90
37380;DHT22;23252;-33.992;18.480;2023-04-25T16:43:08;17.80;99.90
37380;DHT22;23252;-33.992;18.480;2023-04-25T16:45:34;17.80;99.90
37380;DHT22;23252;-33.992;18.480;2023-04-25T16:48:01;17.70;99.90
37380;DHT22;23252;-33.992;18.480;2023-04-25T16:50:27;17.70;99.90
37380;DHT22;23252;-33.992;18.480;2023-04-25T16:52:53;17.60;99.90
37380;DHT22;23252;-33.992;18.480;2023-04-25T16:55:20;17.60;99.90
37380;DHT22;23252;-33.992;18.480;2023-04-25T16:57:47;17.60;99.90
37380;DHT22;23252;-33.992;18.480;2023-04-25T17:00:14;17.60;99.90
37380;DHT22;23252;-33.992;18.480;2023-04-25T17:02:40;17.60;99.90
37380;DHT22;23252;-33.992;18.480;2023-04-25T17:05:07;17.60;99.90
37380;DHT22;23252;-33.992;18.480;2023-04-25T17:07:33;17.50;99.90
37380;DHT22;23252;-33.992;18.480;2023-04-25T17:10:00;17.50;99.90
37380;DHT22;23252;-33.992;18.480;2023-04-25T17:12:27;17.50;99.90
37380;DHT22;23252;-33.992;18.480;2023-04-25T17:14:53;17.40;99.90
37380;DHT22;23252;-33.992;18.480;2023-04-25T17:17:20;17.40;99.90
37380;DHT22;23252;-33.992;18.480;2023-04-25T17:19:46;17.30;99.90
37380;DHT22;23252;-33.992;18.480;2023-04-25T17:22:13;17.30;99.90
37380;DHT22;23252;-33.992;18.480;2023-04-25T17:24:39;17.30;99.90
37380;DHT22;23252;-33.992;18.480;2023-04-25T17:27:06;17.30;99.90
37380;DHT22;23252;-33.992;18.480;2023-04-25T17:29:33;17.20;99.90
37380;DHT22;23252;-33.992;18.480;2023-04-25T17:32:00;17.20;99.90